createdAt,value
2022-10-11T00:01:34.695Z,3.33
2022-10-11T00:04:01.254Z,3.88
2022-10-11T00:06:27.641Z,3.28
2022-10-11T00:08:54.066Z,3.92
2022-10-11T00:11:20.494Z,3.70
2022-10-11T00:13:46.880Z,3.78
2022-10-11T00:16:15.325Z,2.60
2022-10-11T00:18:42.269Z,2.30
2022-10-11T00:21:12.079Z,2.53
2022-10-11T00:23:38.929Z,2.30
2022-10-11T00:26:08.975Z,2.45
2022-10-11T00:28:36.540Z,2.35
2022-10-11T00:31:07.697Z,2.30
2022-10-11T00:33:34.399Z,1.60
2022-10-11T00:36:01.131Z,1.90
2022-10-11T00:38:27.569Z,1.80
2022-10-11T00:40:54.099Z,2.58
2022-10-11T00:43:23.841Z,2.42
2022-10-11T00:45:56.098Z,2.05
2022-10-11T00:48:44.546Z,2.33
2022-10-11T00:51:23.700Z,2.25
2022-10-11T00:53:51.498Z,2.13
2022-10-11T00:56:24.885Z,2.40
2022-10-11T00:58:52.108Z,1.85
2022-10-11T01:01:18.738Z,2.13
2022-10-11T01:03:45.697Z,2.08
2022-10-11T01:06:12.158Z,2.70
2022-10-11T01:08:39.154Z,1.77
2022-10-11T01:11:06.459Z,2.72
2022-10-11T01:13:36.177Z,2.17
2022-10-11T01:16:14.793Z,2.13
2022-10-11T01:18:54.122Z,2.10
2022-10-11T01:21:32.296Z,2.63
2022-10-11T01:24:08.703Z,2.40
2022-10-11T01:27:12.977Z,2.80
2022-10-11T01:29:49.439Z,2.50
2022-10-11T01:32:17.311Z,1.85
2022-10-11T01:34:52.900Z,2.42
2022-10-11T01:37:29.116Z,2.78
2022-10-11T01:40:06.033Z,2.60
2022-10-11T01:42:33.714Z,2.25
2022-10-11T01:45:00.368Z,1.90
2022-10-11T01:47:27.148Z,2.42
2022-10-11T01:49:58.760Z,2.30
2022-10-11T01:52:33.998Z,2.72
2022-10-11T01:55:15.656Z,2.45
2022-10-11T01:57:48.615Z,2.20
2022-10-11T02:00:34.061Z,2.15
2022-10-11T02:03:15.894Z,2.67
2022-10-11T02:05:46.864Z,2.08
2022-10-11T02:08:25.604Z,1.98
2022-10-11T02:10:58.778Z,2.28
2022-10-11T02:13:39.514Z,2.22
2022-10-11T02:16:10.921Z,2.35
2022-10-11T02:18:42.188Z,2.33
2022-10-11T02:21:13.392Z,2.25
2022-10-11T02:23:48.025Z,2.97
2022-10-11T02:26:14.757Z,2.35
2022-10-11T02:28:43.676Z,2.33
2022-10-11T02:31:11.849Z,2.42
2022-10-11T02:33:51.956Z,2.95
2022-10-11T02:36:26.543Z,2.67
2022-10-11T02:38:59.675Z,2.03
2022-10-11T02:41:38.562Z,2.40
2022-10-11T02:44:10.960Z,2.15
2022-10-11T02:46:38.618Z,2.65
2022-10-11T02:49:07.318Z,1.95
2022-10-11T02:51:33.890Z,2.67
2022-10-11T02:54:00.403Z,1.90
2022-10-11T02:56:26.911Z,2.00
2022-10-11T02:58:53.288Z,2.95
2022-10-11T03:01:19.756Z,2.00
2022-10-11T03:03:46.384Z,2.10
2022-10-11T03:06:13.042Z,2.17
2022-10-11T03:08:39.617Z,2.00
2022-10-11T03:11:06.127Z,2.38
2022-10-11T03:13:32.968Z,1.77
2022-10-11T03:16:07.364Z,2.75
2022-10-11T03:18:34.063Z,2.58
2022-10-11T03:21:00.452Z,2.22
2022-10-11T03:23:26.896Z,2.05
2022-10-11T03:25:53.322Z,7.65
2022-10-11T03:28:20.537Z,2.70
2022-10-11T03:30:48.407Z,2.78
2022-10-11T03:33:15.020Z,1.92
2022-10-11T03:35:44.467Z,1.83
2022-10-11T03:38:14.534Z,2.20
2022-10-11T03:40:41.949Z,1.90
2022-10-11T03:43:08.627Z,2.95
2022-10-11T03:45:35.172Z,2.67
2022-10-11T03:48:01.694Z,2.22
2022-10-11T03:50:28.505Z,1.95
2022-10-11T03:52:54.927Z,2.25
2022-10-11T03:55:21.303Z,2.53
2022-10-11T03:57:47.717Z,2.20
2022-10-11T04:00:14.271Z,2.42
2022-10-11T04:02:40.726Z,2.40
2022-10-11T04:05:07.725Z,1.98
2022-10-11T04:07:34.480Z,2.08
2022-10-11T04:10:00.994Z,2.08
2022-10-11T04:12:27.450Z,1.98
2022-10-11T04:14:53.831Z,1.77
2022-10-11T04:17:20.248Z,2.88
2022-10-11T04:19:46.647Z,2.35
2022-10-11T04:22:13.122Z,2.60
2022-10-11T04:24:39.496Z,2.35
2022-10-11T04:27:06.286Z,2.10
2022-10-11T04:29:33.151Z,2.78
2022-10-11T04:31:59.953Z,2.13
2022-10-11T04:34:26.463Z,1.98
2022-10-11T04:36:53.125Z,2.08
2022-10-11T04:39:19.605Z,2.58
2022-10-11T04:41:46.093Z,2.03
2022-10-11T04:44:12.989Z,1.65
2022-10-11T04:46:39.396Z,1.83
2022-10-11T04:49:06.127Z,1.90
2022-10-11T04:51:33.794Z,2.47
2022-10-11T04:54:00.379Z,2.05
2022-10-11T04:56:26.782Z,2.28
2022-10-11T04:58:54.591Z,2.05
2022-10-11T05:01:21.469Z,1.98
2022-10-11T05:03:47.917Z,1.73
2022-10-11T05:06:14.717Z,2.47
2022-10-11T05:08:41.343Z,2.30
2022-10-11T05:11:10.905Z,2.35
2022-10-11T05:13:37.515Z,2.60
2022-10-11T05:16:09.775Z,2.08
2022-10-11T05:18:37.729Z,2.83
2022-10-11T05:21:14.699Z,2.67
2022-10-11T05:23:41.168Z,1.88
2022-10-11T05:26:08.334Z,2.10
2022-10-11T05:28:35.273Z,2.70
2022-10-11T05:31:01.722Z,2.97
2022-10-11T05:33:28.354Z,2.53
2022-10-11T05:35:54.726Z,2.88
2022-10-11T05:38:21.646Z,2.20
2022-10-11T05:40:48.212Z,2.63
2022-10-11T05:43:15.118Z,3.17
2022-10-11T05:45:43.151Z,2.50
2022-10-11T05:48:10.419Z,5.35
2022-10-11T05:50:37.681Z,3.42
2022-10-11T05:53:04.940Z,3.13
2022-10-11T05:55:39.660Z,3.45
2022-10-11T05:58:07.253Z,3.28
2022-10-11T06:00:37.919Z,3.15
2022-10-11T06:03:08.686Z,2.50
2022-10-11T06:05:35.931Z,3.92
2022-10-11T06:08:03.893Z,3.28
2022-10-11T06:10:30.273Z,3.65
2022-10-11T06:12:56.811Z,4.03
2022-10-11T06:15:23.402Z,3.20
2022-10-11T06:17:49.839Z,3.45
2022-10-11T06:20:16.331Z,4.05
2022-10-11T06:22:42.800Z,3.75
2022-10-11T06:25:09.459Z,3.40
2022-10-11T06:27:36.204Z,3.00
2022-10-11T06:30:03.052Z,3.40
2022-10-11T06:32:29.523Z,3.65
2022-10-11T06:34:55.950Z,3.58
2022-10-11T06:37:22.378Z,3.03
2022-10-11T06:39:50.363Z,2.90
2022-10-11T06:42:17.117Z,3.17
2022-10-11T06:44:43.520Z,3.38
2022-10-11T06:47:10.018Z,3.15
2022-10-11T06:49:36.472Z,3.40
2022-10-11T06:52:02.952Z,3.90
2022-10-11T06:54:29.409Z,4.10
2022-10-11T06:56:55.946Z,4.55
2022-10-11T06:59:22.328Z,3.92
2022-10-11T07:01:48.761Z,3.72
2022-10-11T07:04:15.137Z,3.97
2022-10-11T07:06:41.937Z,4.88
2022-10-11T07:09:08.592Z,3.85
2022-10-11T07:11:35.363Z,4.50
2022-10-11T07:14:07.582Z,3.25
2022-10-11T07:16:36.170Z,4.78
2022-10-11T07:19:04.314Z,3.88
2022-10-11T07:21:32.989Z,3.03
2022-10-11T07:24:00.400Z,3.63
2022-10-11T07:26:27.881Z,3.60
2022-10-11T07:28:54.506Z,2.92
2022-10-11T07:31:23.712Z,3.67
2022-10-11T07:33:50.547Z,3.83
2022-10-11T07:36:17.222Z,3.70
2022-10-11T07:38:46.239Z,4.05
2022-10-11T07:41:13.625Z,3.72
2022-10-11T07:43:40.151Z,3.17
2022-10-11T07:46:07.314Z,3.97
2022-10-11T07:48:35.174Z,4.80
2022-10-11T07:51:06.744Z,7.05
2022-10-11T07:53:42.065Z,4.72
2022-10-11T07:56:12.613Z,4.47
2022-10-11T07:58:40.283Z,4.72
2022-10-11T08:01:07.591Z,5.00
2022-10-11T08:03:34.308Z,3.85
2022-10-11T08:06:07.544Z,3.47
2022-10-11T08:08:34.769Z,3.65
2022-10-11T08:11:01.205Z,3.83
2022-10-11T08:13:27.675Z,3.92
2022-10-11T08:15:54.271Z,4.35
2022-10-11T08:18:20.671Z,3.35
2022-10-11T08:20:47.431Z,3.83
2022-10-11T08:23:14.097Z,3.55
2022-10-11T08:25:43.787Z,3.20
2022-10-11T08:28:15.716Z,3.30
2022-10-11T08:30:48.658Z,5.88
2022-10-11T08:33:16.225Z,3.42
2022-10-11T08:35:42.664Z,5.28
2022-10-11T08:38:09.155Z,3.70
2022-10-11T08:40:36.027Z,3.33
2022-10-11T08:43:14.694Z,3.90
2022-10-11T08:45:41.024Z,3.50
2022-10-11T08:48:38.451Z,4.40
2022-10-11T08:51:14.950Z,3.95
2022-10-11T08:53:46.573Z,3.50
2022-10-11T08:56:15.034Z,3.28
2022-10-11T08:58:47.485Z,4.25
2022-10-11T09:01:19.027Z,2.90
2022-10-11T09:03:47.265Z,3.90
2022-10-11T09:06:50.374Z,3.38
2022-10-11T09:09:40.515Z,3.35
2022-10-11T09:12:41.263Z,3.22
2022-10-11T09:15:20.567Z,3.20
2022-10-11T09:17:46.933Z,4.05
2022-10-11T09:20:40.549Z,4.03
2022-10-11T09:23:42.466Z,3.67
2022-10-11T09:26:35.544Z,3.25
2022-10-11T09:29:14.315Z,3.10
2022-10-11T09:31:41.945Z,4.60
2022-10-11T09:34:15.020Z,4.53
2022-10-11T09:37:11.586Z,3.47
2022-10-11T09:39:45.633Z,3.03
2022-10-11T09:42:12.691Z,2.67
2022-10-11T09:44:45.195Z,3.05
2022-10-11T09:47:16.390Z,3.70
2022-10-11T09:49:51.954Z,3.85
2022-10-11T09:52:21.476Z,2.65
2022-10-11T09:55:00.408Z,2.47
2022-10-11T09:57:30.397Z,2.45
2022-10-11T10:00:12.113Z,2.08
2022-10-11T10:02:44.077Z,2.78
2022-10-11T10:05:10.455Z,2.13
2022-10-11T10:07:57.307Z,2.28
2022-10-11T10:10:59.418Z,2.25
2022-10-11T10:13:28.978Z,2.42
2022-10-11T10:15:59.223Z,2.40
2022-10-11T10:19:02.179Z,5.43
2022-10-11T10:21:33.182Z,2.43
2022-10-11T10:24:04.550Z,2.50
2022-10-11T10:26:32.498Z,5.45
2022-10-11T10:29:05.210Z,13.32
2022-10-11T10:32:08.801Z,2.08
2022-10-11T10:34:31.144Z,2.50
2022-10-11T10:37:05.947Z,2.22
2022-10-11T10:39:57.747Z,2.30
2022-10-11T10:42:24.198Z,2.33
2022-10-11T10:44:57.133Z,2.00
2022-10-11T10:50:32.534Z,2.08
2022-10-11T10:53:20.934Z,1.65
2022-10-11T10:56:01.217Z,5.03
2022-10-11T10:58:52.820Z,4.03
2022-10-11T11:01:27.660Z,5.82
2022-10-11T11:04:22.153Z,3.30
2022-10-11T11:06:59.682Z,2.30
2022-10-11T11:09:39.707Z,2.30
2022-10-11T11:12:34.411Z,3.67
2022-10-11T11:15:31.317Z,3.67
2022-10-11T11:18:01.829Z,4.05
2022-10-11T11:20:40.449Z,2.85
2022-10-11T11:23:20.789Z,2.40
2022-10-11T11:26:01.451Z,1.77
2022-10-11T11:28:42.104Z,1.98
2022-10-11T11:31:37.146Z,2.30
2022-10-11T11:34:26.052Z,3.13
2022-10-11T11:37:00.273Z,2.28
2022-10-11T11:39:34.497Z,1.58
2022-10-11T11:42:08.173Z,2.22
2022-10-11T11:44:45.694Z,3.05
2022-10-11T11:47:19.042Z,2.70
2022-10-11T11:49:52.855Z,2.55
2022-10-11T11:52:32.363Z,2.08
2022-10-11T11:55:16.071Z,2.70
2022-10-11T11:57:51.732Z,3.00
2022-10-11T12:00:21.997Z,2.22
2022-10-11T12:03:02.533Z,1.73
2022-10-11T12:05:33.262Z,2.05
2022-10-11T12:08:01.180Z,2.83
2022-10-11T12:10:30.436Z,2.22
2022-10-11T12:13:16.985Z,2.22
2022-10-11T12:16:13.499Z,2.20
2022-10-11T12:18:58.897Z,1.80
2022-10-11T12:21:28.431Z,2.35
2022-10-11T12:24:00.593Z,2.72
2022-10-11T12:26:35.073Z,1.70
2022-10-11T12:29:03.946Z,1.33
2022-10-11T12:31:35.988Z,1.63
2022-10-11T12:34:02.341Z,3.10
2022-10-11T12:36:31.392Z,2.17
2022-10-11T12:39:19.720Z,2.05
2022-10-11T12:41:53.630Z,1.75
2022-10-11T12:44:29.395Z,1.90
2022-10-11T12:46:56.516Z,2.00
2022-10-11T12:49:38.149Z,1.88
2022-10-11T12:52:25.157Z,1.65
2022-10-11T12:55:06.993Z,2.50
2022-10-11T12:58:12.200Z,1.98
2022-10-11T13:01:05.093Z,1.50
2022-10-11T13:03:50.810Z,1.77
2022-10-11T13:06:26.645Z,1.80
2022-10-11T13:09:25.749Z,1.77
2022-10-11T13:12:20.170Z,1.60
2022-10-11T13:15:09.802Z,1.98
2022-10-11T13:17:38.986Z,1.80
2022-10-11T13:20:23.858Z,1.67
2022-10-11T13:22:55.329Z,1.80
2022-10-11T13:25:24.700Z,1.40
2022-10-11T13:27:53.306Z,1.67
2022-10-11T13:30:25.555Z,1.85
2022-10-11T13:32:53.248Z,2.22
2022-10-11T13:35:28.673Z,1.52
2022-10-11T13:37:55.332Z,1.65
2022-10-11T13:40:23.259Z,2.05
2022-10-11T13:42:52.028Z,2.40
2022-10-11T13:45:24.720Z,1.70
2022-10-11T13:47:52.656Z,2.17
2022-10-11T13:50:31.756Z,1.80
2022-10-11T13:53:07.081Z,1.75
2022-10-11T13:55:36.664Z,1.70
2022-10-11T13:58:15.029Z,2.22
2022-10-11T14:00:54.831Z,1.52
2022-10-11T14:03:22.154Z,2.03
2022-10-11T14:05:55.190Z,1.77
2022-10-11T14:08:34.348Z,1.63
2022-10-11T14:11:06.111Z,1.83
2022-10-11T14:13:47.139Z,1.70
2022-10-11T14:16:27.977Z,1.70
2022-10-11T14:19:09.941Z,1.90
2022-10-11T14:21:45.793Z,1.90
2022-10-11T14:24:13.544Z,1.80
2022-10-11T14:26:43.422Z,1.58
2022-10-11T14:29:27.749Z,1.58
2022-10-11T14:32:01.580Z,1.95
2022-10-11T14:34:28.695Z,1.73
2022-10-11T14:36:55.282Z,1.52
2022-10-11T14:39:24.700Z,1.80
2022-10-11T14:41:52.511Z,1.95
2022-10-11T14:44:20.441Z,3.97
2022-10-11T14:46:49.184Z,1.90
2022-10-11T14:49:20.319Z,2.33
2022-10-11T14:51:49.216Z,1.80
2022-10-11T14:54:18.853Z,1.88
2022-10-11T14:56:46.171Z,1.80
2022-10-11T14:59:18.820Z,1.60
2022-10-11T15:01:53.381Z,1.55
2022-10-11T15:04:25.775Z,1.45
2022-10-11T15:06:54.074Z,1.88
2022-10-11T15:09:21.273Z,2.00
2022-10-11T15:11:49.439Z,1.98
2022-10-11T15:14:16.161Z,1.85
2022-10-11T15:16:43.229Z,1.88
2022-10-11T15:19:21.147Z,1.73
2022-10-11T15:21:47.846Z,1.70
2022-10-11T15:24:14.993Z,1.80
2022-10-11T15:26:41.927Z,1.58
2022-10-11T15:29:11.304Z,1.98
2022-10-11T15:31:37.981Z,1.70
2022-10-11T15:34:04.429Z,1.52
2022-10-11T15:36:30.948Z,1.65
2022-10-11T15:38:57.385Z,1.92
2022-10-11T15:41:24.206Z,1.55
2022-10-11T15:43:50.766Z,1.40
2022-10-11T15:46:22.237Z,1.40
2022-10-11T15:48:49.929Z,2.10
2022-10-11T15:51:17.019Z,1.80
2022-10-11T15:53:43.411Z,1.25
2022-10-11T15:56:19.458Z,2.03
2022-10-11T15:58:46.024Z,2.78
2022-10-11T16:01:18.886Z,3.00
2022-10-11T16:03:48.372Z,3.97
2022-10-11T16:06:16.467Z,4.18
2022-10-11T16:08:43.124Z,4.43
2022-10-11T16:11:10.529Z,4.75
2022-10-11T16:13:37.000Z,4.93
2022-10-11T16:16:05.497Z,4.22
2022-10-11T16:18:35.355Z,3.22
2022-10-11T16:21:06.842Z,3.83
2022-10-11T16:23:33.474Z,3.67
2022-10-11T16:26:02.302Z,4.07
2022-10-11T16:28:29.674Z,4.68
2022-10-11T16:30:56.944Z,3.95
2022-10-11T16:33:23.641Z,4.38
2022-10-11T16:35:50.117Z,4.55
2022-10-11T16:38:16.944Z,5.60
2022-10-11T16:40:43.455Z,4.88
2022-10-11T16:43:10.191Z,4.05
2022-10-11T16:45:37.019Z,4.15
2022-10-11T16:48:03.985Z,4.20
2022-10-11T16:50:31.733Z,4.32
2022-10-11T16:52:59.944Z,4.55
2022-10-11T16:55:26.527Z,4.97
2022-10-11T16:57:52.948Z,4.18
2022-10-11T17:00:19.879Z,3.50
2022-10-11T17:02:46.366Z,6.95
2022-10-11T17:05:12.831Z,5.35
2022-10-11T17:07:39.574Z,3.70
2022-10-11T17:10:06.649Z,3.72
2022-10-11T17:12:35.446Z,2.70
2022-10-11T17:15:01.870Z,3.42
2022-10-11T17:17:28.310Z,3.20
2022-10-11T17:19:54.748Z,4.53
2022-10-11T17:22:21.248Z,4.70
2022-10-11T17:24:47.674Z,4.00
2022-10-11T17:27:14.448Z,3.90
2022-10-11T17:29:41.155Z,3.80
2022-10-11T17:32:07.673Z,4.68
2022-10-11T17:34:34.348Z,4.60
2022-10-11T17:37:00.933Z,3.55
2022-10-11T17:39:27.522Z,3.58
2022-10-11T17:41:53.947Z,3.30
2022-10-11T17:44:21.649Z,3.47
2022-10-11T17:46:48.373Z,4.57
2022-10-11T17:49:15.072Z,4.63
2022-10-11T17:51:42.043Z,5.47
2022-10-11T17:54:13.181Z,4.78
2022-10-11T17:56:41.710Z,4.60
2022-10-11T17:59:14.825Z,4.35
2022-10-11T18:01:41.464Z,4.85
2022-10-11T18:04:10.123Z,4.20
2022-10-11T18:06:39.540Z,4.60
2022-10-11T18:09:06.359Z,4.15
2022-10-11T18:11:32.993Z,3.88
2022-10-11T18:13:59.653Z,4.53
2022-10-11T18:16:28.278Z,4.93
2022-10-11T18:18:57.236Z,4.60
2022-10-11T18:21:33.413Z,4.90
2022-10-11T18:24:03.070Z,5.28
2022-10-11T18:26:30.858Z,5.20
2022-10-11T18:28:58.197Z,5.40
2022-10-11T18:31:28.039Z,5.97
2022-10-11T18:33:55.166Z,4.47
2022-10-11T18:36:24.338Z,4.40
2022-10-11T18:38:56.516Z,4.68
2022-10-11T18:41:25.251Z,4.47
2022-10-11T18:43:54.909Z,5.88
2022-10-11T18:46:22.378Z,3.97
2022-10-11T18:48:50.626Z,4.70
2022-10-11T18:51:23.038Z,4.40
2022-10-11T18:53:50.085Z,3.95
2022-10-11T18:56:20.659Z,3.70
2022-10-11T18:58:48.530Z,3.67
2022-10-11T19:01:18.755Z,4.30
2022-10-11T19:03:47.187Z,4.20
2022-10-11T19:06:17.603Z,3.92
2022-10-11T19:08:48.408Z,3.95
2022-10-11T19:11:16.216Z,4.13
2022-10-11T19:13:43.108Z,3.60
2022-10-11T19:16:15.701Z,4.07
2022-10-11T19:18:44.425Z,4.10
2022-10-11T19:21:13.300Z,3.25
2022-10-11T19:23:42.133Z,3.35
2022-10-11T19:26:13.520Z,3.55
2022-10-11T19:28:40.022Z,3.75
2022-10-11T19:31:11.698Z,4.80
2022-10-11T19:33:38.126Z,3.47
2022-10-11T19:36:06.699Z,3.50
2022-10-11T19:38:34.831Z,3.28
2022-10-11T19:41:02.880Z,4.30
2022-10-11T19:43:29.316Z,4.65
2022-10-11T19:46:06.538Z,4.85
2022-10-11T19:48:39.529Z,4.85
2022-10-11T19:51:09.350Z,3.50
2022-10-11T19:53:36.607Z,3.95
2022-10-11T19:56:05.200Z,4.63
2022-10-11T19:58:31.625Z,4.15
2022-10-11T20:01:07.172Z,4.20
2022-10-11T20:03:34.205Z,4.95
2022-10-11T20:06:02.258Z,5.20
2022-10-11T20:08:31.257Z,4.75
2022-10-11T20:11:02.332Z,4.55
2022-10-11T20:13:33.936Z,4.60
2022-10-11T20:16:04.159Z,5.40
2022-10-11T20:18:31.467Z,4.95
2022-10-11T20:21:03.427Z,5.35
2022-10-11T20:23:30.944Z,4.60
2022-10-11T20:26:02.048Z,4.38
2022-10-11T20:28:31.219Z,4.32
2022-10-11T20:30:58.696Z,4.50
2022-10-11T20:33:25.977Z,3.10
2022-10-11T20:36:04.443Z,3.47
2022-10-11T20:38:32.486Z,3.10
2022-10-11T20:40:59.386Z,3.10
2022-10-11T20:43:26.097Z,2.88
2022-10-11T20:46:00.620Z,2.85
2022-10-11T20:48:27.194Z,2.58
2022-10-11T20:50:53.770Z,2.80
2022-10-11T20:53:20.245Z,3.88
2022-10-11T20:55:47.046Z,2.83
2022-10-11T20:58:13.480Z,3.35
2022-10-11T21:00:40.646Z,3.90
2022-10-11T21:03:07.132Z,3.03
2022-10-11T21:05:33.699Z,2.65
2022-10-11T21:08:00.450Z,3.13
2022-10-11T21:10:27.577Z,2.80
2022-10-11T21:12:55.682Z,2.60
2022-10-11T21:15:22.081Z,2.53
2022-10-11T21:17:48.605Z,2.42
2022-10-11T21:20:15.382Z,2.80
2022-10-11T21:22:41.767Z,2.47
2022-10-11T21:25:08.308Z,2.45
2022-10-11T21:27:35.081Z,2.55
2022-10-11T21:30:01.695Z,2.40
2022-10-11T21:32:28.115Z,2.40
2022-10-11T21:34:54.519Z,2.75
2022-10-11T21:37:20.929Z,2.30
2022-10-11T21:39:47.367Z,2.67
2022-10-11T21:42:13.849Z,2.50
2022-10-11T21:44:43.120Z,2.75
2022-10-11T21:47:10.352Z,2.03
2022-10-11T21:49:36.959Z,2.58
2022-10-11T21:52:04.236Z,2.50
2022-10-11T21:54:30.626Z,2.25
2022-10-11T21:56:57.040Z,2.63
2022-10-11T21:59:23.430Z,2.83
2022-10-11T22:01:49.909Z,2.92
2022-10-11T22:04:16.356Z,2.50
2022-10-11T22:06:42.748Z,3.05
2022-10-11T22:09:09.349Z,2.40
2022-10-11T22:11:35.982Z,2.53
2022-10-11T22:14:02.871Z,2.53
2022-10-11T22:16:29.427Z,2.70
2022-10-11T22:18:56.226Z,2.50
2022-10-11T22:21:23.901Z,2.13
2022-10-11T22:23:53.382Z,2.33
2022-10-11T22:26:22.512Z,2.50
2022-10-11T22:28:49.232Z,3.05
2022-10-11T22:31:18.082Z,2.00
2022-10-11T22:36:17.238Z,2.38
2022-10-11T22:38:44.076Z,3.60
2022-10-11T22:41:10.728Z,2.47
2022-10-11T22:43:37.702Z,3.40
2022-10-11T22:46:05.462Z,2.60
2022-10-11T22:48:31.939Z,2.80
2022-10-11T22:50:58.592Z,3.38
2022-10-11T22:53:25.001Z,2.60
2022-10-11T22:55:51.442Z,2.45
2022-10-11T22:58:17.921Z,2.75
2022-10-11T23:00:44.362Z,2.60
2022-10-11T23:03:15.643Z,2.42
2022-10-11T23:05:42.571Z,2.45
2022-10-11T23:08:09.471Z,2.38
2022-10-11T23:10:39.688Z,3.30
2022-10-11T23:13:07.765Z,2.38
2022-10-11T23:15:34.189Z,2.30
2022-10-11T23:18:00.703Z,2.33
2022-10-11T23:20:27.290Z,2.42
2022-10-11T23:22:53.697Z,2.13
2022-10-11T23:25:20.319Z,2.30
2022-10-11T23:27:46.754Z,2.42
2022-10-11T23:30:13.467Z,2.42
2022-10-11T23:32:39.896Z,2.65
2022-10-11T23:35:06.579Z,2.70
2022-10-11T23:37:33.025Z,2.60
2022-10-11T23:39:59.454Z,2.28
2022-10-11T23:42:25.859Z,3.10
2022-10-11T23:44:52.910Z,2.40
2022-10-11T23:47:19.368Z,2.58
2022-10-11T23:49:45.759Z,2.65
2022-10-11T23:52:12.203Z,2.20
2022-10-11T23:54:38.581Z,2.90
2022-10-11T23:57:04.973Z,2.50
2022-10-11T23:59:31.468Z,2.40
